sensor_id;sensor_type;location;lat;lon;timestamp;temperature;humidity
20366;DHT22;10341;49.894;8.822;2022-08-19T00:04:28;18.90;99.90
20366;DHT22;10341;49.894;8.822;2022-08-19T00:09:48;19.00;99.90
20366;DHT22;10341;49.894;8.822;2022-08-19T00:15:09;19.00;99.90
20366;DHT22;10341;49.894;8.822;2022-08-19T00:20:30;19.00;99.90
20366;DHT22;10341;49.894;8.822;2022-08-19T00:25:49;19.00;99.90
20366;DHT22;10341;49.894;8.822;2022-08-19T00:31:09;19.00;99.90
20366;DHT22;10341;49.894;8.822;2022-08-19T00:36:29;19.00;99.90
20366;DHT22;10341;49.894;8.822;2022-08-19T00:41:49;18.90;99.90
20366;DHT22;10341;49.894;8.822;2022-08-19T00:47:08;18.90;99.90
20366;DHT22;10341;49.894;8.822;2022-08-19T00:52:30;18.80;99.90
20366;DHT22;10341;49.894;8.822;2022-08-19T00:58:00;18.80;99.90
20366;DHT22;10341;49.894;8.822;2022-08-19T01:03:22;18.80;99.90
20366;DHT22;10341;49.894;8.822;2022-08-19T01:08:41;18.80;99.90
20366;DHT22;10341;49.894;8.822;2022-08-19T01:14:00;18.90;99.90
20366;DHT22;10341;49.894;8.822;2022-08-19T01:19:25;18.90;99.90
20366;DHT22;10341;49.894;8.822;2022-08-19T01:24:45;18.90;99.90
20366;DHT22;10341;49.894;8.822;2022-08-19T01:30:05;19.00;99.90
20366;DHT22;10341;49.894;8.822;2022-08-19T01:35:26;18.90;99.90
20366;DHT22;10341;49.894;8.822;2022-08-19T01:40:47;18.90;99.90
20366;DHT22;10341;49.894;8.822;2022-08-19T01:46:06;18.80;99.90
20366;DHT22;10341;49.894;8.822;2022-08-19T01:51:26;18.80;99.90
20366;DHT22;10341;49.894;8.822;2022-08-19T01:56:45;18.80;99.90
20366;DHT22;10341;49.894;8.822;2022-08-19T02:02:05;18.70;99.90
20366;DHT22;10341;49.894;8.822;2022-08-19T02:07:27;18.70;99.90
20366;DHT22;10341;49.894;8.822;2022-08-19T02:12:48;18.80;99.90
20366;DHT22;10341;49.894;8.822;2022-08-19T02:18:08;18.90;99.90
20366;DHT22;10341;49.894;8.822;2022-08-19T02:23:27;18.90;99.90
20366;DHT22;10341;49.894;8.822;2022-08-19T02:28:46;18.90;99.90
20366;DHT22;10341;49.894;8.822;2022-08-19T02:34:06;19.00;99.90
20366;DHT22;10341;49.894;8.822;2022-08-19T02:39:26;18.90;99.90
20366;DHT22;10341;49.894;8.822;2022-08-19T02:44:45;19.00;99.90
20366;DHT22;10341;49.894;8.822;2022-08-19T02:50:05;18.90;99.90
20366;DHT22;10341;49.894;8.822;2022-08-19T02:55:24;18.80;99.90
20366;DHT22;10341;49.894;8.822;2022-08-19T03:00:45;18.70;99.90
20366;DHT22;10341;49.894;8.822;2022-08-19T03:06:12;18.60;99.90
20366;DHT22;10341;49.894;8.822;2022-08-19T03:11:33;18.40;99.90
20366;DHT22;10341;49.894;8.822;2022-08-19T03:16:52;18.30;99.90
20366;DHT22;10341;49.894;8.822;2022-08-19T03:22:11;18.10;99.90
20366;DHT22;10341;49.894;8.822;2022-08-19T03:27:31;18.00;99.90
20366;DHT22;10341;49.894;8.822;2022-08-19T03:32:50;17.90;99.90
20366;DHT22;10341;49.894;8.822;2022-08-19T03:38:09;17.80;99.90
20366;DHT22;10341;49.894;8.822;2022-08-19T03:43:28;17.70;99.90
20366;DHT22;10341;49.894;8.822;2022-08-19T03:48:50;17.60;99.90
20366;DHT22;10341;49.894;8.822;2022-08-19T03:54:14;17.60;99.90
20366;DHT22;10341;49.894;8.822;2022-08-19T03:59:35;17.50;99.90
20366;DHT22;10341;49.894;8.822;2022-08-19T04:04:55;17.50;99.90
20366;DHT22;10341;49.894;8.822;2022-08-19T04:10:14;17.40;99.90
20366;DHT22;10341;49.894;8.822;2022-08-19T04:15:33;17.40;99.90
20366;DHT22;10341;49.894;8.822;2022-08-19T04:20:59;17.40;99.90
20366;DHT22;10341;49.894;8.822;2022-08-19T04:26:20;17.50;99.90
20366;DHT22;10341;49.894;8.822;2022-08-19T04:31:41;17.50;99.90
20366;DHT22;10341;49.894;8.822;2022-08-19T04:37:00;17.50;99.90
20366;DHT22;10341;49.894;8.822;2022-08-19T04:42:19;17.50;99.90
20366;DHT22;10341;49.894;8.822;2022-08-19T04:47:57;17.50;99.90
20366;DHT22;10341;49.894;8.822;2022-08-19T04:53:16;17.50;99.90
20366;DHT22;10341;49.894;8.822;2022-08-19T04:58:37;17.50;99.90
20366;DHT22;10341;49.894;8.822;2022-08-19T05:03:58;17.60;99.90
20366;DHT22;10341;49.894;8.822;2022-08-19T05:09:17;17.60;99.90
20366;DHT22;10341;49.894;8.822;2022-08-19T05:14:37;17.70;99.90
20366;DHT22;10341;49.894;8.822;2022-08-19T05:19:56;17.80;99.90
20366;DHT22;10341;49.894;8.822;2022-08-19T05:25:34;17.90;99.90
20366;DHT22;10341;49.894;8.822;2022-08-19T05:30:53;18.10;99.90
20366;DHT22;10341;49.894;8.822;2022-08-19T05:36:14;18.30;99.90
20366;DHT22;10341;49.894;8.822;2022-08-19T05:41:34;18.50;99.90
20366;DHT22;10341;49.894;8.822;2022-08-19T05:46:53;18.70;99.90
20366;DHT22;10341;49.894;8.822;2022-08-19T05:52:14;19.00;99.90
20366;DHT22;10341;49.894;8.822;2022-08-19T05:57:34;19.20;99.90
20366;DHT22;10341;49.894;8.822;2022-08-19T06:02:53;19.50;99.90
20366;DHT22;10341;49.894;8.822;2022-08-19T06:08:15;19.80;99.90
20366;DHT22;10341;49.894;8.822;2022-08-19T06:13:37;20.10;99.90
20366;DHT22;10341;49.894;8.822;2022-08-19T06:18:59;20.40;99.90
20366;DHT22;10341;49.894;8.822;2022-08-19T06:24:21;20.70;99.90
20366;DHT22;10341;49.894;8.822;2022-08-19T06:29:44;20.90;99.90
20366;DHT22;10341;49.894;8.822;2022-08-19T06:35:06;21.00;99.90
20366;DHT22;10341;49.894;8.822;2022-08-19T06:40:25;21.10;99.90
20366;DHT22;10341;49.894;8.822;2022-08-19T06:45:46;21.20;99.90
20366;DHT22;10341;49.894;8.822;2022-08-19T06:51:06;21.40;99.90
20366;DHT22;10341;49.894;8.822;2022-08-19T06:56:29;21.70;99.90
20366;DHT22;10341;49.894;8.822;2022-08-19T07:01:55;22.00;99.90
20366;DHT22;10341;49.894;8.822;2022-08-19T07:07:15;22.20;99.90
20366;DHT22;10341;49.894;8.822;2022-08-19T07:12:34;22.50;99.90
20366;DHT22;10341;49.894;8.822;2022-08-19T07:17:53;22.70;99.90
20366;DHT22;10341;49.894;8.822;2022-08-19T07:23:12;22.80;99.90
20366;DHT22;10341;49.894;8.822;2022-08-19T07:28:31;23.00;99.90
20366;DHT22;10341;49.894;8.822;2022-08-19T07:33:52;23.20;99.90
20366;DHT22;10341;49.894;8.822;2022-08-19T07:39:15;23.30;99.90
20366;DHT22;10341;49.894;8.822;2022-08-19T07:44:35;23.60;99.90
20366;DHT22;10341;49.894;8.822;2022-08-19T07:49:55;23.90;99.90
20366;DHT22;10341;49.894;8.822;2022-08-19T07:55:18;24.00;99.90
20366;DHT22;10341;49.894;8.822;2022-08-19T08:00:38;24.00;99.90
20366;DHT22;10341;49.894;8.822;2022-08-19T08:05:57;24.00;99.90
20366;DHT22;10341;49.894;8.822;2022-08-19T08:11:38;24.00;99.90
20366;DHT22;10341;49.894;8.822;2022-08-19T08:16:57;24.20;99.90
20366;DHT22;10341;49.894;8.822;2022-08-19T08:22:19;24.90;99.90
20366;DHT22;10341;49.894;8.822;2022-08-19T08:27:58;25.60;99.90
20366;DHT22;10341;49.894;8.822;2022-08-19T08:33:20;26.40;99.90
20366;DHT22;10341;49.894;8.822;2022-08-19T08:38:41;27.50;99.90
20366;DHT22;10341;49.894;8.822;2022-08-19T08:44:01;29.80;99.90
20366;DHT22;10341;49.894;8.822;2022-08-19T08:49:46;31.50;98.20
20366;DHT22;10341;49.894;8.822;2022-08-19T08:55:20;33.20;96.00
20366;DHT22;10341;49.894;8.822;2022-08-19T09:00:44;33.70;94.00
20366;DHT22;10341;49.894;8.822;2022-08-19T09:17:26;30.20;94.30
20366;DHT22;10341;49.894;8.822;2022-08-19T09:22:53;28.60;97.10
20366;DHT22;10341;49.894;8.822;2022-08-19T09:28:12;29.20;97.40
20366;DHT22;10341;49.894;8.822;2022-08-19T09:33:31;30.60;95.10
20366;DHT22;10341;49.894;8.822;2022-08-19T09:38:51;29.10;96.00
20366;DHT22;10341;49.894;8.822;2022-08-19T09:44:10;29.00;95.60
20366;DHT22;10341;49.894;8.822;2022-08-19T09:49:31;29.20;95.30
20366;DHT22;10341;49.894;8.822;2022-08-19T09:54:53;30.00;94.80
20366;DHT22;10341;49.894;8.822;2022-08-19T10:00:13;30.00;94.50
20366;DHT22;10341;49.894;8.822;2022-08-19T10:05:32;30.50;94.80
20366;DHT22;10341;49.894;8.822;2022-08-19T10:11:07;30.70;94.40
20366;DHT22;10341;49.894;8.822;2022-08-19T10:16:28;31.30;92.60
20366;DHT22;10341;49.894;8.822;2022-08-19T10:21:47;32.60;91.90
20366;DHT22;10341;49.894;8.822;2022-08-19T10:27:06;34.20;90.30
20366;DHT22;10341;49.894;8.822;2022-08-19T10:32:25;34.90;84.70
20366;DHT22;10341;49.894;8.822;2022-08-19T10:37:44;34.30;84.60
20366;DHT22;10341;49.894;8.822;2022-08-19T10:43:04;35.30;82.60
20366;DHT22;10341;49.894;8.822;2022-08-19T10:48:23;35.40;80.30
20366;DHT22;10341;49.894;8.822;2022-08-19T10:53:42;35.90;79.10
20366;DHT22;10341;49.894;8.822;2022-08-19T10:59:02;37.40;76.90
20366;DHT22;10341;49.894;8.822;2022-08-19T11:04:22;34.40;79.80
20366;DHT22;10341;49.894;8.822;2022-08-19T11:09:41;31.60;85.70
20366;DHT22;10341;49.894;8.822;2022-08-19T11:15:01;34.10;82.70
20366;DHT22;10341;49.894;8.822;2022-08-19T11:20:20;34.70;80.20
20366;DHT22;10341;49.894;8.822;2022-08-19T11:25:39;32.80;83.60
20366;DHT22;10341;49.894;8.822;2022-08-19T11:30:59;31.00;87.10
20366;DHT22;10341;49.894;8.822;2022-08-19T11:36:19;30.90;88.80
20366;DHT22;10341;49.894;8.822;2022-08-19T11:41:39;31.50;86.50
20366;DHT22;10341;49.894;8.822;2022-08-19T11:46:58;33.50;83.90
20366;DHT22;10341;49.894;8.822;2022-08-19T11:52:19;32.70;81.90
20366;DHT22;10341;49.894;8.822;2022-08-19T11:57:38;34.70;79.70
20366;DHT22;10341;49.894;8.822;2022-08-19T12:02:59;35.30;75.80
20366;DHT22;10341;49.894;8.822;2022-08-19T12:08:19;34.60;77.40
20366;DHT22;10341;49.894;8.822;2022-08-19T12:13:38;32.30;80.90
20366;DHT22;10341;49.894;8.822;2022-08-19T12:18:58;30.70;85.70
20366;DHT22;10341;49.894;8.822;2022-08-19T12:24:22;30.70;87.00
20366;DHT22;10341;49.894;8.822;2022-08-19T12:29:43;30.70;85.80
20366;DHT22;10341;49.894;8.822;2022-08-19T12:35:02;30.30;88.10
20366;DHT22;10341;49.894;8.822;2022-08-19T12:40:22;29.70;89.20
20366;DHT22;10341;49.894;8.822;2022-08-19T12:45:42;29.10;90.00
20366;DHT22;10341;49.894;8.822;2022-08-19T12:51:10;29.80;90.00
20366;DHT22;10341;49.894;8.822;2022-08-19T12:56:29;29.40;88.10
20366;DHT22;10341;49.894;8.822;2022-08-19T13:01:48;28.70;89.70
20366;DHT22;10341;49.894;8.822;2022-08-19T13:07:08;28.00;90.90
20366;DHT22;10341;49.894;8.822;2022-08-19T13:12:27;27.70;91.40
20366;DHT22;10341;49.894;8.822;2022-08-19T13:17:48;27.50;92.10
20366;DHT22;10341;49.894;8.822;2022-08-19T13:23:09;27.60;92.20
20366;DHT22;10341;49.894;8.822;2022-08-19T13:28:28;27.70;91.80
20366;DHT22;10341;49.894;8.822;2022-08-19T13:34:11;28.00;91.40
20366;DHT22;10341;49.894;8.822;2022-08-19T13:39:32;28.20;92.00
20366;DHT22;10341;49.894;8.822;2022-08-19T13:44:53;28.60;91.30
20366;DHT22;10341;49.894;8.822;2022-08-19T13:50:15;29.50;90.00
20366;DHT22;10341;49.894;8.822;2022-08-19T13:55:40;30.70;87.70
20366;DHT22;10341;49.894;8.822;2022-08-19T14:01:00;32.20;81.40
20366;DHT22;10341;49.894;8.822;2022-08-19T14:06:20;32.90;80.10
20366;DHT22;10341;49.894;8.822;2022-08-19T14:11:40;33.90;77.40
20366;DHT22;10341;49.894;8.822;2022-08-19T14:16:59;32.70;79.30
20366;DHT22;10341;49.894;8.822;2022-08-19T14:22:18;31.70;80.20
20366;DHT22;10341;49.894;8.822;2022-08-19T14:27:39;31.70;80.00
20366;DHT22;10341;49.894;8.822;2022-08-19T14:33:00;30.50;81.90
20366;DHT22;10341;49.894;8.822;2022-08-19T14:38:20;29.60;83.80
20366;DHT22;10341;49.894;8.822;2022-08-19T14:43:39;29.10;85.40
20366;DHT22;10341;49.894;8.822;2022-08-19T14:48:59;29.10;85.60
20366;DHT22;10341;49.894;8.822;2022-08-19T14:54:18;29.90;84.20
20366;DHT22;10341;49.894;8.822;2022-08-19T14:59:38;30.80;81.90
20366;DHT22;10341;49.894;8.822;2022-08-19T15:04:57;31.90;79.70
20366;DHT22;10341;49.894;8.822;2022-08-19T15:10:16;31.90;79.20
20366;DHT22;10341;49.894;8.822;2022-08-19T15:15:35;32.20;78.70
20366;DHT22;10341;49.894;8.822;2022-08-19T15:20:54;32.10;78.50
20366;DHT22;10341;49.894;8.822;2022-08-19T15:26:15;31.70;76.20
20366;DHT22;10341;49.894;8.822;2022-08-19T15:31:34;31.50;76.50
20366;DHT22;10341;49.894;8.822;2022-08-19T15:36:54;31.20;76.40
20366;DHT22;10341;49.894;8.822;2022-08-19T15:42:13;31.00;76.70
20366;DHT22;10341;49.894;8.822;2022-08-19T15:47:32;30.40;77.00
20366;DHT22;10341;49.894;8.822;2022-08-19T15:52:53;29.80;77.10
20366;DHT22;10341;49.894;8.822;2022-08-19T15:58:14;29.40;79.00
20366;DHT22;10341;49.894;8.822;2022-08-19T16:03:53;29.40;79.30
20366;DHT22;10341;49.894;8.822;2022-08-19T16:09:31;29.10;79.00
20366;DHT22;10341;49.894;8.822;2022-08-19T16:14:52;28.70;83.50
20366;DHT22;10341;49.894;8.822;2022-08-19T16:20:12;28.40;80.10
20366;DHT22;10341;49.894;8.822;2022-08-19T16:25:31;28.30;81.60
20366;DHT22;10341;49.894;8.822;2022-08-19T16:30:50;28.30;82.20
20366;DHT22;10341;49.894;8.822;2022-08-19T16:36:10;28.20;82.20
20366;DHT22;10341;49.894;8.822;2022-08-19T16:41:29;28.10;83.70
20366;DHT22;10341;49.894;8.822;2022-08-19T16:46:48;27.90;82.50
20366;DHT22;10341;49.894;8.822;2022-08-19T16:52:09;28.00;83.00
20366;DHT22;10341;49.894;8.822;2022-08-19T16:57:28;28.10;84.00
20366;DHT22;10341;49.894;8.822;2022-08-19T17:02:47;28.00;83.10
20366;DHT22;10341;49.894;8.822;2022-08-19T17:08:06;28.20;82.00
20366;DHT22;10341;49.894;8.822;2022-08-19T17:13:27;28.40;82.70
20366;DHT22;10341;49.894;8.822;2022-08-19T17:18:47;28.60;82.50
20366;DHT22;10341;49.894;8.822;2022-08-19T17:24:10;28.60;81.40
20366;DHT22;10341;49.894;8.822;2022-08-19T17:29:31;28.40;80.00
20366;DHT22;10341;49.894;8.822;2022-08-19T17:34:50;28.40;80.10
20366;DHT22;10341;49.894;8.822;2022-08-19T17:40:09;28.40;79.40
20366;DHT22;10341;49.894;8.822;2022-08-19T17:45:28;28.50;79.00
20366;DHT22;10341;49.894;8.822;2022-08-19T17:50:48;28.40;79.00
20366;DHT22;10341;49.894;8.822;2022-08-19T17:56:09;28.20;78.50
20366;DHT22;10341;49.894;8.822;2022-08-19T18:01:29;27.60;80.30
20366;DHT22;10341;49.894;8.822;2022-08-19T18:06:49;27.10;80.80
20366;DHT22;10341;49.894;8.822;2022-08-19T18:12:10;26.80;81.10
20366;DHT22;10341;49.894;8.822;2022-08-19T18:17:30;26.50;81.60
20366;DHT22;10341;49.894;8.822;2022-08-19T18:22:50;26.20;83.50
20366;DHT22;10341;49.894;8.822;2022-08-19T18:28:10;25.80;84.60
20366;DHT22;10341;49.894;8.822;2022-08-19T18:33:29;25.50;84.70
20366;DHT22;10341;49.894;8.822;2022-08-19T18:38:48;25.20;87.20
20366;DHT22;10341;49.894;8.822;2022-08-19T18:44:26;24.90;88.40
20366;DHT22;10341;49.894;8.822;2022-08-19T18:50:05;24.60;88.20
20366;DHT22;10341;49.894;8.822;2022-08-19T18:55:28;24.30;89.40
20366;DHT22;10341;49.894;8.822;2022-08-19T19:00:47;24.20;90.40
20366;DHT22;10341;49.894;8.822;2022-08-19T19:06:06;24.10;90.60
20366;DHT22;10341;49.894;8.822;2022-08-19T19:11:30;24.00;90.60
20366;DHT22;10341;49.894;8.822;2022-08-19T19:16:50;23.90;91.50
20366;DHT22;10341;49.894;8.822;2022-08-19T19:22:12;23.80;91.50
20366;DHT22;10341;49.894;8.822;2022-08-19T19:27:31;23.50;92.20
20366;DHT22;10341;49.894;8.822;2022-08-19T19:32:51;23.40;92.80
20366;DHT22;10341;49.894;8.822;2022-08-19T19:38:10;23.20;94.30
20366;DHT22;10341;49.894;8.822;2022-08-19T19:43:30;23.00;95.20
20366;DHT22;10341;49.894;8.822;2022-08-19T19:48:49;22.80;95.40
20366;DHT22;10341;49.894;8.822;2022-08-19T19:54:11;22.70;96.70
20366;DHT22;10341;49.894;8.822;2022-08-19T19:59:31;22.60;96.90
20366;DHT22;10341;49.894;8.822;2022-08-19T20:04:51;22.70;96.40
20366;DHT22;10341;49.894;8.822;2022-08-19T20:10:12;22.70;96.90
20366;DHT22;10341;49.894;8.822;2022-08-19T20:15:32;22.80;96.20
20366;DHT22;10341;49.894;8.822;2022-08-19T20:20:51;22.90;96.10
20366;DHT22;10341;49.894;8.822;2022-08-19T20:26:10;22.90;96.20
20366;DHT22;10341;49.894;8.822;2022-08-19T20:31:30;22.80;97.00
20366;DHT22;10341;49.894;8.822;2022-08-19T20:36:49;22.70;97.20
20366;DHT22;10341;49.894;8.822;2022-08-19T20:42:08;22.70;97.10
20366;DHT22;10341;49.894;8.822;2022-08-19T20:47:28;22.70;96.90
20366;DHT22;10341;49.894;8.822;2022-08-19T20:52:49;22.60;97.50
20366;DHT22;10341;49.894;8.822;2022-08-19T20:58:08;22.60;97.60
20366;DHT22;10341;49.894;8.822;2022-08-19T21:03:32;22.50;97.60
20366;DHT22;10341;49.894;8.822;2022-08-19T21:08:52;22.40;98.40
20366;DHT22;10341;49.894;8.822;2022-08-19T21:14:12;22.20;98.50
20366;DHT22;10341;49.894;8.822;2022-08-19T21:19:32;22.00;99.30
20366;DHT22;10341;49.894;8.822;2022-08-19T21:24:51;21.80;99.90
20366;DHT22;10341;49.894;8.822;2022-08-19T21:30:11;21.50;99.90
20366;DHT22;10341;49.894;8.822;2022-08-19T21:35:31;21.20;99.90
20366;DHT22;10341;49.894;8.822;2022-08-19T21:40:50;21.00;99.90
20366;DHT22;10341;49.894;8.822;2022-08-19T21:46:09;20.80;99.90
20366;DHT22;10341;49.894;8.822;2022-08-19T21:51:28;20.70;99.90
20366;DHT22;10341;49.894;8.822;2022-08-19T21:56:47;20.60;99.90
20366;DHT22;10341;49.894;8.822;2022-08-19T22:02:06;20.40;99.90
20366;DHT22;10341;49.894;8.822;2022-08-19T22:07:27;20.20;99.90
20366;DHT22;10341;49.894;8.822;2022-08-19T22:12:46;20.10;99.90
20366;DHT22;10341;49.894;8.822;2022-08-19T22:18:06;19.90;99.90
20366;DHT22;10341;49.894;8.822;2022-08-19T22:23:25;19.80;99.90
20366;DHT22;10341;49.894;8.822;2022-08-19T22:28:44;19.70;99.90
20366;DHT22;10341;49.894;8.822;2022-08-19T22:34:05;19.60;99.90
20366;DHT22;10341;49.894;8.822;2022-08-19T22:39:24;19.50;99.90
20366;DHT22;10341;49.894;8.822;2022-08-19T22:44:43;19.50;99.90
20366;DHT22;10341;49.894;8.822;2022-08-19T22:50:04;19.50;99.90
20366;DHT22;10341;49.894;8.822;2022-08-19T22:55:25;19.40;99.90
20366;DHT22;10341;49.894;8.822;2022-08-19T23:00:44;19.40;99.90
20366;DHT22;10341;49.894;8.822;2022-08-19T23:06:04;19.30;99.90
20366;DHT22;10341;49.894;8.822;2022-08-19T23:11:22;19.30;99.90
20366;DHT22;10341;49.894;8.822;2022-08-19T23:16:42;19.20;99.90
20366;DHT22;10341;49.894;8.822;2022-08-19T23:22:03;19.20;99.90
20366;DHT22;10341;49.894;8.822;2022-08-19T23:27:23;19.10;99.90
20366;DHT22;10341;49.894;8.822;2022-08-19T23:33:12;19.10;99.90
20366;DHT22;10341;49.894;8.822;2022-08-19T23:38:31;19.10;99.90
20366;DHT22;10341;49.894;8.822;2022-08-19T23:43:51;19.00;99.90
20366;DHT22;10341;49.894;8.822;2022-08-19T23:49:11;19.00;99.90
20366;DHT22;10341;49.894;8.822;2022-08-19T23:54:30;18.90;99.90
20366;DHT22;10341;49.894;8.822;2022-08-19T23:59:49;18.90;99.90
